This is the latest recevied weather packets stored in our database for station/object AD6NH. If no packets are shown the sender has not sent any weather packets the latest 10 day(s).
| Time | Temp. | Humidity | Pressure | Rain* | Wind** | Luminosity | Snow |
|---|---|---|---|---|---|---|---|
| 1778099823 | 23.89° C | 45% | 1017.7 hPa | 0 mm | - | - | - |
| 1778099223 | 23.33° C | 47% | 1017.9 hPa | 0 mm | - | - | - |
| 1778098623 | 23.89° C | 46% | 1017.9 hPa | 0 mm | - | - | - |
| 1778098023 | 23.33° C | 48% | 1018.2 hPa | 0 mm | - | - | - |
| 1778097423 | 23.33° C | 47% | 1018.3 hPa | 0 mm | - | - | - |
| 1778096823 | 23.33° C | 48% | 1018.2 hPa | 0 mm | - | - | - |
| 1778096223 | 23.33° C | 48% | 1018.4 hPa | 0 mm | - | - | - |
| 1778095623 | 22.22° C | 51% | 1018.4 hPa | 0 mm | - | - | - |
| 1778095023 | 22.78° C | 50% | 1018.5 hPa | 0 mm | - | - | - |
| 1778094423 | 23.33° C | 49% | 1018.5 hPa | 0 mm | - | - | - |
| 1778093823 | 22.22° C | 52% | 1018.8 hPa | 0 mm | - | - | - |
| 1778093223 | 22.22° C | 52% | 1018.8 hPa | 0 mm | - | - | - |
| 1778092623 | 22.78° C | 50% | 1018.9 hPa | 0 mm | - | - | - |
| 1778092023 | 20.56° C | 52% | 1018.9 hPa | 0 mm | - | - | - |
| 1778091423 | 21.67° C | 49% | 1019 hPa | 0 mm | - | - | - |
| 1778090823 | 20.56° C | 53% | 1019 hPa | 0 mm | - | - | - |
| 1778090223 | 21.67° C | 50% | 1019 hPa | 0 mm | - | - | - |
| 1778089623 | 22.22° C | 49% | 1019 hPa | 0 mm | - | - | - |
| 1778089023 | 21.67° C | 48% | 1019 hPa | 0 mm | - | - | - |
| 1778088423 | 21.11° C | 50% | 1019.1 hPa | 0 mm | - | - | - |
| 1778087823 | 21.67° C | 50% | 1019 hPa | 0 mm | - | - | - |
| 1778087223 | 20.56° C | 51% | 1019.1 hPa | 0 mm | - | - | - |
| 1778086623 | 20.56° C | 50% | 1019.1 hPa | 0 mm | - | - | - |
| 1778086023 | 20° C | 52% | 1019 hPa | 0 mm | - | - | - |
| 1778085423 | 20° C | 54% | 1019.1 hPa | 0 mm | - | - | - |
* Rain latest hour (hover to see other rain measurements)
** Current wind speed in m/s (hover to see current wind gust speed)